Terminal Aerodrome Forecast
Issued by NWS

Home | Current Version | Previous Version | Text Only | Print | Product List | Glossary Off
Versions: 1 2 3 4 5 6 7 8 9 10 11 12 13 14 15 16 17

000
FTUS43 KBIS 221721
TAFDIK
TAF
KDIK 221721Z 2218/2318 25006KT P6SM FEW080
     FM222000 26010KT P6SM VCTS SCT060CB
     FM230000 27005KT P6SM VCSH SCT120
     FM230400 24005KT P6SM FEW150=

USA.gov is the U.S. government's official web portal to all federal, state and local government web resources and services.